Time;durP1;ratioP1;P1;durP2;ratioP2;P2;SDS_P1;SDS_P2;PMS_P1;PMS_P2;Temp;Humidity;BMP_temperature;BMP_pressure;BME280_temperature;BME280_humidity;BME280_pressure;Samples;Min_cycle;Max_cycle;Signal;HPM_P1;HPM_P2
2021/04/20 00:05:15;;;;;;;11.85;5.28;;;;;;;8.39;84.08;98358.97;6103717;23;20005;-81
2021/04/20 00:07:41;;;;;;;6.65;4.38;;;;;;;8.39;84.22;98351.75;6134095;23;20072;-79
2021/04/20 00:10:12;;;;;;;7.75;4.45;;;;;;;8.39;84.15;98351.75;6183517;23;20008;-80
2021/04/20 00:12:38;;;;;;;6.97;4.35;;;;;;;8.40;84.09;98357.84;6203258;22;20119;-79
2021/04/20 00:15:30;;;;;;;4.78;4.07;;;;;;;8.41;84.15;98356.78;6250170;22;20027;-78
2021/04/20 00:17:58;;;;;;;7.03;3.70;;;;;;;8.43;83.97;98355.44;6250092;22;20006;-78
2021/04/20 00:20:24;;;;;;;8.70;4.32;;;;;;;8.42;84.30;98350.38;6249006;22;19995;-79
2021/04/20 00:22:50;;;;;;;7.07;3.90;;;;;;;8.43;83.65;98354.66;6250525;22;20015;-78
2021/04/20 00:25:16;;;;;;;5.20;3.80;;;;;;;8.41;84.21;98351.47;6249222;22;19999;-79
2021/04/20 00:27:41;;;;;;;6.00;4.57;;;;;;;8.40;83.80;98349.88;6250573;22;20341;-78
2021/04/20 00:30:08;;;;;;;6.45;4.70;;;;;;;8.40;84.36;98357.84;6276180;22;19999;-78
2021/04/20 00:32:34;;;;;;;5.85;3.85;;;;;;;8.38;84.45;98350.16;6250957;22;20428;-78
2021/04/20 00:35:00;;;;;;;7.07;4.57;;;;;;;8.38;84.56;98352.81;6251164;22;20597;-79
2021/04/20 00:37:25;;;;;;;7.18;4.13;;;;;;;8.38;84.79;98349.38;6276600;22;20006;-78
2021/04/20 00:39:51;;;;;;;9.00;4.80;;;;;;;8.37;84.79;98350.44;6275926;22;20007;-78
2021/04/20 00:42:17;;;;;;;6.68;5.22;;;;;;;8.34;84.69;98354.44;6275123;22;20019;-78
2021/04/20 00:44:42;;;;;;;8.90;4.90;;;;;;;8.33;85.09;98356.31;6250789;22;20083;-78
2021/04/20 00:47:08;;;;;;;6.80;4.18;;;;;;;8.35;84.85;98361.38;6276500;22;20086;-78
2021/04/20 00:49:33;;;;;;;6.85;4.93;;;;;;;8.36;84.95;98356.84;6275730;22;20000;-78
2021/04/20 00:51:58;;;;;;;7.68;5.10;;;;;;;8.36;85.05;98354.97;6276304;22;19999;-78
2021/04/20 00:54:25;;;;;;;6.82;4.97;;;;;;;8.37;85.01;98348.56;6277045;22;20080;-79
2021/04/20 00:56:50;;;;;;;6.78;4.82;;;;;;;8.38;84.99;98355.47;6251802;22;20500;-79
2021/04/20 00:59:16;;;;;;;6.82;4.50;;;;;;;8.37;85.17;98359.22;6279076;22;20035;-78
2021/04/20 01:01:42;;;;;;;5.32;3.97;;;;;;;8.40;84.92;98358.66;6279796;22;20011;-78
2021/04/20 01:04:12;;;;;;;6.55;4.55;;;;;;;8.41;85.35;98359.44;6279517;22;20007;-79
2021/04/20 01:06:39;;;;;;;5.57;4.03;;;;;;;8.44;84.81;98357.03;6253167;22;20424;-80
2021/04/20 01:09:06;;;;;;;6.72;4.18;;;;;;;8.45;85.15;98363.16;6276710;22;20007;-79
2021/04/20 01:11:34;;;;;;;6.85;4.22;;;;;;;8.48;85.16;98357.28;6250906;22;19999;-79
2021/04/20 01:14:04;;;;;;;7.55;4.78;;;;;;;8.48;84.61;98366.09;6249315;22;20006;-79
2021/04/20 01:16:32;;;;;;;5.95;4.13;;;;;;;8.48;84.96;98367.97;6249201;22;19995;-79
2021/04/20 01:18:57;;;;;;;5.77;4.10;;;;;;;8.51;85.12;98367.41;6249393;22;20403;-80
2021/04/20 01:21:23;;;;;;;4.72;3.70;;;;;;;8.52;84.79;98370.88;6274170;22;20061;-81
2021/04/20 01:24:08;;;;;;;6.63;4.13;;;;;;;8.51;84.52;98370.06;6249391;22;19999;-81
2021/04/20 01:26:37;;;;;;;5.45;4.07;;;;;;;8.52;84.79;98370.88;6248614;22;20003;-80
2021/04/20 01:29:12;;;;;;;6.18;3.53;;;;;;;8.52;84.32;98370.88;6249403;22;20003;-83
2021/04/20 01:32:04;;;;;;;6.70;4.07;;;;;;;8.53;84.56;98377.78;6249222;22;20065;-81
2021/04/20 01:34:39;;;;;;;4.88;3.20;;;;;;;8.51;84.86;98377.25;6275474;22;20068;-83
2021/04/20 01:37:16;;;;;;;4.03;3.40;;;;;;;8.49;84.79;98378.34;6251181;22;20010;-81
2021/04/20 01:40:07;;;;;;;3.63;3.25;;;;;;;8.51;84.31;98379.94;6251082;22;19991;-80
2021/04/20 01:42:34;;;;;;;4.63;2.70;;;;;;;8.50;84.63;98381.81;6276283;22;20019;-77
2021/04/20 01:45:06;;;;;;;4.15;2.78;;;;;;;8.50;84.18;98379.16;6249309;22;20058;-81
2021/04/20 01:47:32;;;;;;;3.40;2.55;;;;;;;8.50;84.89;98381.81;6248393;22;20940;-79
2021/04/20 01:49:59;;;;;;;6.50;3.00;;;;;;;8.49;84.42;98375.69;6248384;22;20004;-79
2021/04/20 01:52:25;;;;;;;3.63;2.50;;;;;;;8.48;84.71;98371.44;6275500;22;20002;-79
2021/04/20 01:54:50;;;;;;;3.65;2.22;;;;;;;8.48;84.38;98379.44;6248119;22;20000;-81
2021/04/20 01:57:17;;;;;;;3.00;1.80;;;;;;;8.51;84.41;98366.59;6273446;22;20042;-79
2021/04/20 01:59:43;;;;;;;3.28;2.50;;;;;;;8.49;84.21;98375.69;6249244;22;19999;-81
2021/04/20 02:02:09;;;;;;;1.90;1.70;;;;;;;8.49;84.02;98372.22;6275094;22;20125;-81
2021/04/20 02:04:34;;;;;;;2.45;2.25;;;;;;;8.50;83.88;98371.16;6248546;22;20495;-80
2021/04/20 02:07:00;;;;;;;2.50;1.60;;;;;;;8.51;84.08;98374.59;6274133;22;20490;-79
2021/04/20 02:09:26;;;;;;;2.42;1.75;;;;;;;8.51;83.97;98369.25;6273868;22;20013;-79
2021/04/20 02:11:51;;;;;;;2.17;1.65;;;;;;;8.52;83.63;98384.19;6273603;22;20474;-79
2021/04/20 02:14:17;;;;;;;2.30;1.90;;;;;;;8.51;83.80;98380.75;6275171;22;20004;-77
2021/04/20 02:16:43;;;;;;;1.60;1.50;;;;;;;8.52;83.56;98384.19;6276542;22;20324;-77
2021/04/20 02:19:12;;;;;;;2.78;2.10;;;;;;;8.50;83.63;98387.13;6276645;22;20003;-76
2021/04/20 02:21:39;;;;;;;1.70;1.30;;;;;;;8.52;83.85;98389.50;6277338;22;20007;-76
2021/04/20 02:24:06;;;;;;;3.22;1.30;;;;;;;8.49;83.29;98390.88;6277048;22;20066;-78
2021/04/20 02:26:36;;;;;;;2.73;1.37;;;;;;;8.47;83.67;98391.16;6248234;22;20007;-77
2021/04/20 02:29:03;;;;;;;1.58;1.27;;;;;;;8.47;83.53;98390.34;6275087;22;20234;-78
2021/04/20 02:31:33;;;;;;;2.23;1.77;;;;;;;8.47;83.50;98393.81;6275432;22;20002;-78
2021/04/20 02:33:59;;;;;;;1.10;1.10;;;;;;;8.48;83.50;98391.94;6275714;22;20074;-78
2021/04/20 02:36:25;;;;;;;2.22;1.50;;;;;;;8.49;83.44;98397.00;6248478;22;20006;-77
2021/04/20 02:38:51;;;;;;;3.08;1.70;;;;;;;8.45;83.26;98387.94;6275778;22;20000;-79
2021/04/20 02:41:18;;;;;;;1.83;1.52;;;;;;;8.45;83.68;98395.16;6275450;22;20000;-79
2021/04/20 02:43:47;;;;;;;2.37;2.00;;;;;;;8.46;83.61;98407.41;6249169;22;20019;-79
2021/04/20 02:46:14;;;;;;;2.00;1.77;;;;;;;8.43;83.61;98403.41;6275767;22;20060;-79
2021/04/20 02:48:41;;;;;;;2.60;1.75;;;;;;;8.42;83.21;98409.81;6248214;22;19995;-81
2021/04/20 02:51:11;;;;;;;3.90;2.13;;;;;;;8.40;83.98;98409.28;6275917;22;20074;-79
2021/04/20 02:53:39;;;;;;;2.60;1.67;;;;;;;8.37;83.92;98403.72;6247007;22;20409;-80
2021/04/20 02:56:05;;;;;;;2.30;1.65;;;;;;;8.34;83.95;98411.19;6248701;22;20030;-77
2021/04/20 02:58:32;;;;;;;3.15;1.83;;;;;;;8.33;83.32;98412.25;6250224;22;20024;-78
2021/04/20 03:01:06;;;;;;;2.00;1.65;;;;;;;8.29;83.77;98411.22;6248735;22;20437;-78
2021/04/20 03:03:37;;;;;;;2.55;1.92;;;;;;;8.28;83.52;98412.28;6276344;22;20031;-79
2021/04/20 03:06:04;;;;;;;3.72;1.83;;;;;;;8.30;83.98;98417.34;6248591;22;20444;-78
2021/04/20 03:08:31;;;;;;;3.00;2.20;;;;;;;8.27;83.59;98413.34;6275164;22;20075;-81
2021/04/20 03:11:06;;;;;;;2.33;1.90;;;;;;;8.25;83.74;98415.53;6246627;22;20007;-80
2021/04/20 03:13:32;;;;;;;5.78;2.40;;;;;;;8.24;83.39;98405.13;6247196;22;20065;-79
2021/04/20 03:16:00;;;;;;;4.93;2.00;;;;;;;8.25;83.43;98412.06;6247890;22;20098;-79
2021/04/20 03:18:25;;;;;;;3.72;2.10;;;;;;;8.24;83.13;98418.44;6274786;22;20057;-78
2021/04/20 03:20:51;;;;;;;3.08;1.80;;;;;;;8.22;82.90;98412.63;6274468;22;20008;-81
2021/04/20 03:23:17;;;;;;;2.58;2.05;;;;;;;8.23;83.00;98419.53;6248938;22;20007;-80
2021/04/20 03:25:43;;;;;;;3.35;2.47;;;;;;;8.21;82.97;98419.78;6249443;22;20008;-80
2021/04/20 03:28:09;;;;;;;4.90;3.00;;;;;;;8.23;83.21;98415.00;6275113;22;20339;-80
2021/04/20 03:30:35;;;;;;;4.20;2.60;;;;;;;8.25;83.49;98422.69;6274273;22;20039;-82
2021/04/20 03:33:33;;;;;;;4.30;2.58;;;;;;;8.25;83.25;98423.50;6249857;22;20349;-81
2021/04/20 03:36:07;;;;;;;3.55;3.13;;;;;;;8.25;83.20;98425.38;6223922;22;20010;-81
2021/04/20 03:38:51;;;;;;;6.28;3.35;;;;;;;8.28;83.13;98427.50;6273655;22;20000;-78
2021/04/20 03:41:32;;;;;;;3.08;2.42;;;;;;;8.26;83.13;98429.63;6247724;22;19996;-79
2021/04/20 03:44:00;;;;;;;4.85;3.55;;;;;;;8.26;83.45;98438.41;6248110;22;20129;-79
2021/04/20 03:46:28;;;;;;;;;;;;;;;8.27;83.25;98441.88;6247443;22;20007;-79
2021/04/20 03:48:59;;;;;;;4.03;2.00;;;;;;;8.25;82.78;98444.00;6247853;22;19903;-79
2021/04/20 03:51:28;;;;;;;3.08;1.88;;;;;;;8.24;82.81;98451.22;6274095;22;19996;-79
2021/04/20 03:53:56;;;;;;;4.50;2.97;;;;;;;8.24;83.17;98450.41;6273284;22;20057;-80
2021/04/20 03:56:27;;;;;;;4.45;3.20;;;;;;;8.19;82.69;98453.91;6273563;22;19999;-79
2021/04/20 03:58:56;;;;;;;3.35;2.58;;;;;;;8.16;82.72;98449.91;6247603;22;20068;-79
2021/04/20 04:01:21;;;;;;;;;;;;;;;8.15;82.67;98456.34;6248945;22;20003;-78
2021/04/20 04:03:49;;;;;;;5.75;2.60;;;;;;;8.13;82.79;98458.47;6275294;22;20327;-78
2021/04/20 04:06:18;;;;;;;3.05;1.85;;;;;;;8.11;83.26;98463.25;6249489;22;20079;-79
2021/04/20 04:08:45;;;;;;;2.47;2.10;;;;;;;8.13;82.93;98469.13;6276085;22;20023;-78
2021/04/20 04:11:13;;;;;;;2.47;2.15;;;;;;;8.10;83.26;98460.88;6275943;22;20003;-77
2021/04/20 04:13:42;;;;;;;4.25;2.80;;;;;;;8.13;83.22;98466.47;6248593;22;20027;-78
2021/04/20 04:16:10;;;;;;;2.08;1.85;;;;;;;8.14;83.58;98456.59;6276115;22;19995;-77
2021/04/20 04:19:05;;;;;;;2.33;1.60;;;;;;;8.17;83.06;98470.16;6255010;22;20000;-80
2021/04/20 04:21:46;;;;;;;3.70;2.22;;;;;;;8.18;82.98;98478.97;6262055;22;20072;-75
2021/04/20 04:24:14;;;;;;;4.75;1.75;;;;;;;8.19;82.58;98483.22;6274664;22;20047;-76
2021/04/20 04:26:48;;;;;;;4.22;1.90;;;;;;;8.16;82.90;98491.75;6247757;22;20306;-75
2021/04/20 04:29:14;;;;;;;2.00;1.48;;;;;;;8.18;83.03;98487.72;6274214;22;19995;-73
2021/04/20 04:31:44;;;;;;;3.60;2.15;;;;;;;8.20;82.65;98478.69;6246963;22;20006;-74
2021/04/20 04:34:12;;;;;;;9.32;4.22;;;;;;;8.21;82.35;98489.06;6247718;22;20004;-74
2021/04/20 04:36:40;;;;;;;2.95;2.22;;;;;;;8.21;82.55;98490.94;6247628;22;20101;-74
2021/04/20 04:39:05;;;;;;;3.05;2.00;;;;;;;8.23;82.08;98492.25;6275136;22;19995;-74
2021/04/20 04:41:33;;;;;;;3.42;2.20;;;;;;;8.17;81.85;98477.38;6274579;22;20054;-74
2021/04/20 04:43:59;;;;;;;3.13;1.63;;;;;;;8.27;81.36;98495.94;6274919;22;19995;-73
2021/04/20 04:46:24;;;;;;;2.90;2.25;;;;;;;8.27;81.31;98495.16;6274892;22;19999;-73
2021/04/20 04:48:51;;;;;;;4.55;2.35;;;;;;;8.31;81.09;98505.00;6275123;22;19996;-74
2021/04/20 04:51:18;;;;;;;3.75;2.25;;;;;;;8.31;81.07;98501.53;6274817;22;20007;-74
2021/04/20 04:53:44;;;;;;;3.45;2.60;;;;;;;8.36;81.31;98495.38;6274957;22;20064;-74
2021/04/20 04:56:11;;;;;;;2.22;2.03;;;;;;;8.35;80.03;98505.25;6275054;22;19995;-74
2021/04/20 04:58:37;;;;;;;2.92;2.10;;;;;;;8.37;80.40;98508.41;6274391;22;20379;-74
2021/04/20 05:01:04;;;;;;;2.78;2.47;;;;;;;8.36;80.47;98501.53;6275049;22;20000;-73
2021/04/20 05:03:29;;;;;;;1.80;1.48;;;;;;;8.42;79.84;98515.59;6247530;22;20079;-74
2021/04/20 05:05:56;;;;;;;2.75;1.98;;;;;;;8.42;80.29;98520.91;6273497;22;20027;-74
2021/04/20 05:08:22;;;;;;;4.78;2.30;;;;;;;8.46;80.23;98517.47;6247745;22;20004;-73
2021/04/20 05:10:49;;;;;;;3.92;2.30;;;;;;;8.48;80.09;98517.19;6274207;22;20435;-74
2021/04/20 05:13:15;;;;;;;3.50;2.67;;;;;;;8.49;79.66;98524.94;6274874;22;19996;-73
2021/04/20 05:15:40;;;;;;;3.30;2.38;;;;;;;8.49;79.57;98532.94;6274221;22;20079;-73
2021/04/20 05:18:10;;;;;;;4.20;2.90;;;;;;;8.53;79.39;98529.69;6247756;22;20003;-74
2021/04/20 05:20:40;;;;;;;3.80;2.22;;;;;;;8.53;79.56;98532.34;6274574;22;20406;-74
2021/04/20 05:23:06;;;;;;;2.20;1.70;;;;;;;8.55;79.44;98527.56;6274976;22;19999;-74
2021/04/20 05:25:31;;;;;;;2.58;2.38;;;;;;;8.54;78.30;98528.63;6274498;22;20471;-74
2021/04/20 05:27:57;;;;;;;4.90;2.75;;;;;;;8.57;78.47;98534.22;6273287;22;20000;-73
2021/04/20 05:30:23;;;;;;;3.65;1.80;;;;;;;8.56;78.16;98534.50;6274526;22;20027;-73
2021/04/20 05:32:50;;;;;;;3.75;2.50;;;;;;;8.58;78.32;98538.47;6274878;22;20010;-74
2021/04/20 05:35:16;;;;;;;2.88;2.53;;;;;;;8.60;78.49;98546.19;6274773;22;20027;-73
2021/04/20 05:37:43;;;;;;;2.70;1.92;;;;;;;8.59;77.66;98552.56;6274400;22;19999;-73
2021/04/20 05:40:13;;;;;;;3.85;2.30;;;;;;;8.61;77.64;98545.91;6274081;22;20083;-74
2021/04/20 05:42:39;;;;;;;2.45;2.17;;;;;;;8.65;77.85;98552.28;6274366;22;20413;-74
2021/04/20 05:45:06;;;;;;;4.82;2.80;;;;;;;8.67;77.77;98556.53;6274613;22;20080;-73
2021/04/20 05:47:32;;;;;;;2.78;2.55;;;;;;;8.70;77.24;98556.00;6274210;22;20109;-73
2021/04/20 05:50:00;;;;;;;3.67;2.67;;;;;;;8.69;77.07;98565.88;6274526;22;20007;-74
2021/04/20 05:52:26;;;;;;;3.20;2.20;;;;;;;8.71;76.39;98563.72;6274304;22;20003;-73
2021/04/20 05:54:58;;;;;;;3.22;2.63;;;;;;;8.72;76.16;98556.53;6274198;22;20230;-73
2021/04/20 05:57:24;;;;;;;3.13;2.03;;;;;;;8.72;76.06;98567.97;6274107;22;20003;-74
2021/04/20 05:59:57;;;;;;;3.97;3.00;;;;;;;8.72;76.28;98565.31;6274334;22;20007;-73
2021/04/20 06:02:25;;;;;;;3.20;2.30;;;;;;;8.72;75.94;98569.84;6274810;22;20034;-74
2021/04/20 06:04:57;;;;;;;2.28;1.90;;;;;;;8.73;76.27;98564.25;6248367;22;20003;-74
2021/04/20 06:07:24;;;;;;;2.63;2.35;;;;;;;8.77;75.97;98567.16;6274851;22;19999;-74
2021/04/20 06:09:50;;;;;;;2.88;2.53;;;;;;;8.81;75.74;98574.31;6274715;22;20138;-74
2021/04/20 06:12:16;;;;;;;2.70;2.17;;;;;;;8.87;75.72;98572.41;6273886;22;20070;-74
2021/04/20 06:14:42;;;;;;;2.25;2.05;;;;;;;8.88;75.78;98566.00;6273520;22;20007;-73
2021/04/20 06:17:09;;;;;;;2.83;2.40;;;;;;;8.95;75.33;98573.72;6273216;22;20003;-73
2021/04/20 06:19:38;;;;;;;4.30;2.38;;;;;;;8.97;75.23;98567.03;6246054;22;20007;-74
2021/04/20 06:22:09;;;;;;;3.50;2.35;;;;;;;9.01;74.84;98575.28;6272650;22;20332;-74
2021/04/20 06:24:35;;;;;;;3.72;2.85;;;;;;;9.06;74.55;98577.91;6246080;22;20000;-74
2021/04/20 06:27:01;;;;;;;3.10;2.72;;;;;;;9.14;74.76;98579.16;6273392;22;19999;-74
2021/04/20 06:29:27;;;;;;;3.45;2.80;;;;;;;9.19;74.47;98583.69;6273061;22;20004;-74
2021/04/20 06:31:53;;;;;;;4.55;2.92;;;;;;;9.26;74.15;98582.31;6272783;22;19996;-74
2021/04/20 06:34:20;;;;;;;3.55;3.25;;;;;;;9.37;74.35;98588.34;6273353;22;20428;-74
2021/04/20 06:36:46;;;;;;;3.05;2.63;;;;;;;9.51;74.39;98585.03;6272922;22;19999;-74
2021/04/20 06:39:12;;;;;;;5.57;3.53;;;;;;;9.63;73.00;98585.47;6273266;22;20014;-74
2021/04/20 06:41:39;;;;;;;4.18;3.08;;;;;;;9.75;73.40;98583.22;6273047;22;20004;-74
2021/04/20 06:44:19;;;;;;;4.75;3.03;;;;;;;9.92;73.34;98580.13;6272862;22;20429;-74
2021/04/20 06:47:15;;;;;;;5.10;3.72;;;;;;;10.25;73.03;98584.84;6272950;22;20004;-74
2021/04/20 06:49:53;;;;;;;3.72;3.42;;;;;;;10.56;73.01;98579.94;6273068;22;20000;-74
2021/04/20 06:52:28;;;;;;;3.60;3.22;;;;;;;10.92;70.79;98583.25;6273409;22;20000;-74
2021/04/20 06:55:13;;;;;;;4.45;3.15;;;;;;;11.20;70.56;98578.81;6273678;22;20023;-74
2021/04/20 06:57:52;;;;;;;3.45;2.85;;;;;;;11.55;68.43;98582.00;6273301;22;20010;-74
2021/04/20 07:00:24;;;;;;;3.97;3.30;;;;;;;11.79;65.89;98579.19;6273558;22;20396;-74
2021/04/20 07:02:57;;;;;;;3.55;2.83;;;;;;;11.97;63.23;98582.09;6273182;22;20463;-74
2021/04/20 07:05:33;;;;;;;3.42;3.13;;;;;;;12.03;62.83;98580.91;6273222;22;19999;-73
2021/04/20 07:08:24;;;;;;;5.97;3.75;;;;;;;12.12;63.53;98583.69;6273742;22;20000;-73
2021/04/20 07:10:51;;;;;;;3.08;2.78;;;;;;;12.14;62.96;98593.03;6272930;22;20077;-74
2021/04/20 07:13:21;;;;;;;3.70;3.10;;;;;;;12.17;62.84;98588.97;6273920;22;20337;-74
2021/04/20 07:15:58;;;;;;;3.92;3.33;;;;;;;12.32;64.14;98587.88;6273680;22;20031;-74
2021/04/20 07:18:51;;;;;;;3.53;3.05;;;;;;;12.50;63.61;98591.56;6274062;22;19999;-73
2021/04/20 07:22:01;;;;;;;3.88;3.40;;;;;;;12.70;63.53;98592.22;6274221;22;20408;-73
2021/04/20 07:24:35;;;;;;;3.63;3.33;;;;;;;12.80;60.86;98590.13;6221878;22;20007;-74
2021/04/20 07:27:43;;;;;;;3.60;3.30;;;;;;;12.98;61.30;98598.31;6273491;22;19995;-73
2021/04/20 07:30:18;;;;;;;4.32;2.78;;;;;;;13.15;60.15;98604.94;6261054;22;20197;-73
2021/04/20 07:33:02;;;;;;;3.03;2.78;;;;;;;13.26;58.80;98600.91;6271989;22;20330;-73
2021/04/20 07:35:34;;;;;;;3.45;3.15;;;;;;;13.34;58.81;98602.88;6275320;22;20389;-73
2021/04/20 07:38:32;;;;;;;3.25;2.78;;;;;;;13.46;59.41;98613.06;6275547;22;20083;-73
2021/04/20 07:41:22;;;;;;;4.38;3.45;;;;;;;13.52;59.13;98616.44;6274065;22;20007;-73
2021/04/20 07:43:57;;;;;;;4.05;3.65;;;;;;;13.58;58.88;98613.31;6275603;22;20004;-73
2021/04/20 07:46:40;;;;;;;4.53;3.00;;;;;;;13.56;58.27;98620.91;6274184;22;20387;-74
2021/04/20 07:49:42;;;;;;;4.03;3.63;;;;;;;13.51;57.66;98628.28;6275301;22;20310;-74
2021/04/20 07:52:14;;;;;;;5.07;3.60;;;;;;;13.61;58.27;98630.75;6275313;22;20000;-74
2021/04/20 07:54:45;;;;;;;5.55;4.22;;;;;;;13.68;57.55;98631.06;6275417;22;19996;-74
2021/04/20 07:57:24;;;;;;;5.90;4.28;;;;;;;13.80;57.88;98635.91;6275204;22;20383;-74
2021/04/20 08:00:06;;;;;;;3.90;3.50;;;;;;;13.90;56.43;98634.84;6273519;22;20132;-74
2021/04/20 08:02:37;;;;;;;6.43;5.03;;;;;;;13.92;57.05;98633.44;6275179;22;20035;-74
2021/04/20 08:05:36;;;;;;;4.15;3.75;;;;;;;13.95;57.73;98637.41;6275501;22;20003;-74
2021/04/20 08:08:40;;;;;;;4.55;3.95;;;;;;;13.93;57.51;98645.78;6275049;22;20402;-74
2021/04/20 08:11:11;;;;;;;5.72;4.35;;;;;;;13.96;57.99;98635.53;6247718;22;20049;-74
2021/04/20 08:13:50;;;;;;;3.90;3.53;;;;;;;14.00;57.83;98645.34;6274984;22;19996;-74
2021/04/20 08:16:39;;;;;;;4.45;3.90;;;;;;;13.92;57.97;98644.19;6275357;22;19996;-74
2021/04/20 08:19:36;;;;;;;6.10;4.55;;;;;;;13.97;58.25;98640.59;6275285;22;20022;-74
2021/04/20 08:22:04;;;;;;;6.57;4.50;;;;;;;13.93;56.80;98636.94;6242299;22;20004;-74
2021/04/20 08:24:42;;;;;;;4.70;4.28;;;;;;;13.96;56.61;98641.69;6273260;22;20412;-73
2021/04/20 08:27:28;;;;;;;6.47;4.82;;;;;;;13.96;58.22;98638.22;6275304;22;20149;-73
2021/04/20 08:29:58;;;;;;;5.53;4.00;;;;;;;14.08;58.00;98633.81;6275143;22;20121;-74
2021/04/20 08:32:28;;;;;;;5.57;4.50;;;;;;;14.16;57.86;98642.25;6275536;22;20000;-74
2021/04/20 08:35:01;;;;;;;6.00;4.88;;;;;;;14.20;56.65;98635.94;6274794;22;20329;-74
2021/04/20 08:37:30;;;;;;;5.50;4.55;;;;;;;14.28;55.74;98641.66;6274826;22;20364;-74
2021/04/20 08:40:06;;;;;;;6.25;4.90;;;;;;;14.36;55.62;98646.31;6274965;22;20043;-74
2021/04/20 08:42:43;;;;;;;4.80;4.32;;;;;;;14.41;53.10;98638.91;6272846;22;20411;-74
2021/04/20 08:45:20;;;;;;;6.53;4.93;;;;;;;14.49;54.04;98641.91;6274400;22;20396;-73
2021/04/20 08:48:08;;;;;;;5.45;4.95;;;;;;;14.57;54.30;98635.75;6274548;22;20380;-73
2021/04/20 08:50:42;;;;;;;7.45;4.75;;;;;;;14.63;54.75;98642.59;6274613;22;20050;-73
2021/04/20 08:53:33;;;;;;;4.90;4.30;;;;;;;14.63;51.96;98641.78;6274606;22;20324;-73
2021/04/20 08:56:08;;;;;;;5.93;4.95;;;;;;;14.60;52.77;98645.09;6275081;22;20004;-73
2021/04/20 08:58:56;;;;;;;6.22;4.80;;;;;;;14.60;51.33;98640.53;6274678;22;20003;-73
2021/04/20 09:01:33;;;;;;;6.90;4.97;;;;;;;14.65;51.57;98643.09;6275022;22;19995;-73
2021/04/20 09:04:30;;;;;;;5.22;4.75;;;;;;;14.72;52.86;98642.63;6273256;22;20082;-73
2021/04/20 09:07:01;;;;;;;5.05;4.55;;;;;;;14.83;52.85;98643.13;6274898;22;20010;-73
2021/04/20 09:09:31;;;;;;;5.57;4.97;;;;;;;14.89;52.39;98639.19;6274475;22;20110;-73
2021/04/20 09:12:02;;;;;;;5.63;4.38;;;;;;;14.87;51.34;98642.19;6274647;22;20000;-74
2021/04/20 09:14:34;;;;;;;5.43;4.82;;;;;;;14.83;52.07;98641.25;6274817;22;19996;-74
2021/04/20 09:17:11;;;;;;;5.57;4.97;;;;;;;14.77;51.46;98647.88;6274748;22;20314;-73
2021/04/20 09:19:56;;;;;;;5.57;4.93;;;;;;;14.74;52.67;98640.41;6274193;22;20003;-74
2021/04/20 09:22:44;;;;;;;7.03;5.50;;;;;;;14.82;53.75;98631.56;6274611;22;19995;-74
2021/04/20 09:25:16;;;;;;;;;;;;;;;14.88;51.69;98633.00;6275121;22;20010;-74
2021/04/20 09:27:56;;;;;;;8.98;4.82;;;;;;;14.86;52.07;98639.81;6272828;22;20271;-73
2021/04/20 09:30:25;;;;;;;6.20;4.55;;;;;;;14.89;49.93;98641.88;6247367;22;20379;-74
2021/04/20 09:33:05;;;;;;;8.68;5.50;;;;;;;14.80;49.87;98641.84;6274354;22;20034;-74
2021/04/20 09:35:32;;;;;;;6.82;5.40;;;;;;;14.80;50.49;98643.78;6274161;22;20310;-74
2021/04/20 09:38:00;;;;;;;6.68;5.68;;;;;;;14.69;50.13;98644.03;6274114;22;20499;-74
2021/04/20 09:40:27;;;;;;;7.53;5.28;;;;;;;14.59;50.97;98649.69;6274470;22;20325;-74
2021/04/20 09:42:56;;;;;;;7.15;4.90;;;;;;;14.52;51.73;98650.16;6274218;22;20406;-74
2021/04/20 09:45:38;;;;;;;6.72;5.53;;;;;;;14.38;50.82;98642.19;6274131;22;20601;-74
2021/04/20 09:48:26;;;;;;;7.40;6.00;;;;;;;14.32;51.73;98654.19;6247135;22;20433;-73
2021/04/20 09:51:09;;;;;;;6.93;5.15;;;;;;;14.28;52.00;98655.94;6273650;22;20325;-73
2021/04/20 09:54:01;;;;;;;6.88;6.10;;;;;;;14.25;52.47;98651.94;6273731;22;20478;-73
2021/04/20 09:56:39;;;;;;;5.18;4.68;;;;;;;14.28;52.60;98653.25;6273987;22;20432;-73
2021/04/20 09:59:26;;;;;;;5.70;5.13;;;;;;;14.31;52.31;98649.13;6274388;22;20000;-73
2021/04/20 10:02:03;;;;;;;5.40;4.65;;;;;;;14.37;50.96;98643.28;6273560;22;20000;-73
2021/04/20 10:04:41;;;;;;;6.38;5.70;;;;;;;14.50;51.79;98647.00;6274170;22;20000;-73
2021/04/20 10:07:25;;;;;;;5.90;4.68;;;;;;;14.58;50.51;98640.03;6274195;22;19996;-73
2021/04/20 10:10:16;;;;;;;7.85;5.78;;;;;;;14.66;50.40;98642.00;6273879;22;20057;-73
2021/04/20 10:12:49;;;;;;;8.77;5.18;;;;;;;14.73;49.57;98644.22;6273585;22;20003;-73
2021/04/20 10:15:42;;;;;;;6.15;4.90;;;;;;;14.78;50.00;98638.72;6273564;22;19995;-75
2021/04/20 10:18:21;;;;;;;4.88;3.83;;;;;;;14.86;47.27;98637.91;6268904;22;20004;-73
2021/04/20 10:21:01;;;;;;;8.27;5.03;;;;;;;14.95;47.84;98643.34;6273820;22;20082;-74
2021/04/20 10:24:04;;;;;;;8.48;6.25;;;;;;;14.99;47.47;98644.28;6272546;22;20032;-73
2021/04/20 10:26:47;;;;;;;7.28;4.90;;;;;;;15.02;48.05;98637.47;6272214;22;20003;-73
2021/04/20 10:29:18;;;;;;;5.93;4.70;;;;;;;15.10;47.10;98634.00;6274049;22;20006;-75
2021/04/20 10:31:56;;;;;;;7.63;5.55;;;;;;;15.11;47.77;98634.78;6273679;22;20000;-73
2021/04/20 10:34:21;;;;;;;6.32;5.20;;;;;;;15.13;46.53;98630.66;6273604;22;20000;-73
2021/04/20 10:36:55;;;;;;;6.05;5.55;;;;;;;15.10;46.33;98628.59;6272238;22;20000;-73
2021/04/20 10:39:23;;;;;;;6.22;5.60;;;;;;;15.08;46.09;98635.41;6273978;22;20417;-73
2021/04/20 10:41:53;;;;;;;6.00;5.10;;;;;;;15.03;46.09;98639.84;6273870;22;20008;-73
2021/04/20 10:44:22;;;;;;;5.57;5.07;;;;;;;15.02;46.28;98638.25;6273903;22;20017;-73
2021/04/20 10:46:55;;;;;;;7.65;6.22;;;;;;;15.08;46.82;98644.28;6273793;22;20058;-73
2021/04/20 10:49:23;;;;;;;5.63;5.13;;;;;;;15.14;44.24;98637.63;6273722;22;19996;-73
2021/04/20 10:51:54;;;;;;;7.20;6.40;;;;;;;15.18;44.81;98637.78;6273532;22;20044;-73
2021/04/20 10:54:21;;;;;;;7.03;5.45;;;;;;;15.32;45.71;98637.66;6272201;22;20329;-73
2021/04/20 10:56:53;;;;;;;6.95;6.32;;;;;;;15.43;45.60;98624.63;6273158;22;20003;-73
2021/04/20 10:59:29;;;;;;;6.40;5.40;;;;;;;15.48;45.35;98636.03;6246742;22;20008;-73
2021/04/20 11:01:59;;;;;;;6.05;5.45;;;;;;;15.58;45.82;98634.13;6273501;22;20496;-73
2021/04/20 11:04:29;;;;;;;6.47;5.55;;;;;;;15.67;45.30;98643.00;6273773;22;19996;-73
2021/04/20 11:07:17;;;;;;;6.65;5.75;;;;;;;15.77;42.24;98637.28;6273465;22;20417;-73
2021/04/20 11:09:43;;;;;;;6.85;5.70;;;;;;;15.84;41.57;98637.63;6275103;22;20477;-73
2021/04/20 11:12:18;;;;;;;6.30;5.68;;;;;;;15.88;42.02;98635.06;6275398;22;19999;-73
2021/04/20 11:14:49;;;;;;;7.28;6.07;;;;;;;15.89;40.77;98649.31;6274008;22;20027;-74
2021/04/20 11:17:37;;;;;;;6.20;4.95;;;;;;;15.88;40.67;98642.34;6275755;22;20003;-73
2021/04/20 11:20:15;;;;;;;6.53;5.90;;;;;;;15.88;41.76;98631.56;6275880;22;20003;-73
2021/04/20 11:23:00;;;;;;;6.63;6.03;;;;;;;15.90;41.52;98637.44;6275175;22;20021;-73
2021/04/20 11:25:40;;;;;;;8.40;6.50;;;;;;;15.87;40.86;98638.88;6275084;22;20054;-73
2021/04/20 11:28:17;;;;;;;6.90;6.20;;;;;;;15.92;41.25;98638.69;6275654;22;19999;-73
2021/04/20 11:30:52;;;;;;;7.10;5.88;;;;;;;15.97;41.24;98632.34;6275053;22;20413;-73
2021/04/20 11:33:24;;;;;;;7.60;5.93;;;;;;;16.07;40.65;98634.69;6275699;22;19991;-73
2021/04/20 11:35:52;;;;;;;7.38;6.07;;;;;;;16.15;38.96;98639.25;6275053;22;20079;-74
2021/04/20 11:38:18;;;;;;;7.32;5.90;;;;;;;16.24;39.17;98625.72;6275790;22;20007;-74
2021/04/20 11:40:51;;;;;;;7.43;5.65;;;;;;;16.32;39.68;98630.31;6275021;22;20462;-73
2021/04/20 11:43:17;;;;;;;6.53;5.75;;;;;;;16.30;39.05;98619.03;6275827;22;20000;-73
2021/04/20 11:45:45;;;;;;;7.38;6.60;;;;;;;16.35;40.86;98620.00;6275340;22;19999;-73
2021/04/20 11:48:15;;;;;;;;;;;;;;;16.37;39.67;98629.34;6276098;22;20008;-75
2021/04/20 11:50:56;;;;;;;7.43;5.63;;;;;;;16.39;39.14;98631.69;6275280;22;20209;-75
2021/04/20 11:53:23;;;;;;;5.82;5.10;;;;;;;16.40;38.49;98619.78;6275203;22;20006;-75
2021/04/20 11:55:56;;;;;;;7.28;5.80;;;;;;;16.42;39.07;98623.75;6275313;22;20015;-75
2021/04/20 11:58:37;;;;;;;7.85;6.00;;;;;;;16.46;39.68;98621.97;6275539;22;20000;-74
2021/04/20 12:01:21;;;;;;;7.10;5.85;;;;;;;16.49;39.36;98621.34;6275409;22;20000;-75
2021/04/20 12:04:00;;;;;;;7.40;5.45;;;;;;;16.51;39.36;98612.13;6274862;22;20459;-75
2021/04/20 12:06:38;;;;;;;7.07;5.63;;;;;;;16.56;39.99;98606.53;6275456;22;20057;-75
2021/04/20 12:09:05;;;;;;;6.45;5.45;;;;;;;16.59;38.95;98616.69;6275283;22;20033;-75